Main page
Satellite images 10-day forecastsClimateMarine weather Cyclones Lightning AirportsFAQ Newsletter About
Weather : Europe Africa North America South America Asia Australia-Oceania Others
Languages Contact

Alpine, Texas, United States

Alpine-Casparis Municipal Airport

latitude: 30-23-03N, longitude: 103-41-00W, elevation: 1376 m


METAR: KE38 040735Z AUTO 19006KT 10SM CLR 22/12 A3009 RMK AO2 T02180115
TAF: missing

Time: 02:46 (07:46 UTC)

Current weather observation

The report was made 11 minutes ago, at 07:35 UTC
Wind 6 kt from the South
Temperature 22°C
Humidity 53%
Pressure 1019 hPa
Visibility: 16.1 km
Clear sky

Change units
The information on this site is subject to a disclaimer
Weather : Europe Africa North America South America Asia Australia-Oceania Others
Satellite images 10-day forecastsClimateMarine weather Cyclones Lightning AirportsFAQ Languages Contact Newsletter About